createdAt,value
2018-06-17T00:02:17.913Z,14.07
2018-06-17T00:04:45.189Z,13.40
2018-06-17T00:07:12.443Z,12.47
2018-06-17T00:09:39.628Z,13.20
2018-06-17T00:12:06.826Z,13.20
2018-06-17T00:14:34.039Z,13.20
2018-06-17T00:17:01.293Z,14.70
2018-06-17T00:19:28.439Z,13.43
2018-06-17T00:21:55.561Z,12.70
2018-06-17T00:24:22.801Z,14.43
2018-06-17T00:26:49.920Z,14.33
2018-06-17T00:29:17.062Z,14.07
2018-06-17T00:31:44.225Z,13.50
2018-06-17T00:34:11.411Z,14.10
2018-06-17T00:36:38.568Z,13.77
2018-06-17T00:39:07.915Z,13.37
2018-06-17T00:41:35.053Z,13.43
2018-06-17T00:44:02.198Z,13.47
2018-06-17T00:46:29.386Z,14.77
2018-06-17T00:48:56.497Z,13.90
2018-06-17T00:51:23.680Z,14.57
2018-06-17T00:53:50.832Z,13.97
2018-06-17T00:56:18.028Z,14.60
2018-06-17T00:58:45.202Z,14.20
2018-06-17T01:01:12.317Z,14.23
2018-06-17T01:03:39.494Z,14.27
2018-06-17T01:06:06.689Z,14.77
2018-06-17T01:08:33.849Z,15.87
2018-06-17T01:11:01.036Z,14.50
2018-06-17T01:13:28.215Z,15.63
2018-06-17T01:15:55.390Z,15.97
2018-06-17T01:18:22.581Z,18.30
2018-06-17T01:20:49.777Z,61.60
2018-06-17T01:23:16.913Z,46.63
2018-06-17T01:25:44.067Z,25.63
2018-06-17T01:28:11.221Z,18.00
2018-06-17T01:30:38.394Z,15.47
2018-06-17T01:33:05.525Z,15.93
2018-06-17T01:35:32.692Z,15.87
2018-06-17T01:37:59.817Z,15.70
2018-06-17T01:40:26.980Z,15.50
2018-06-17T01:42:54.073Z,15.07
2018-06-17T01:45:21.264Z,16.07
2018-06-17T01:47:48.449Z,15.10
2018-06-17T01:50:15.598Z,14.43
2018-06-17T01:52:42.789Z,15.80
2018-06-17T01:55:09.984Z,14.27
2018-06-17T01:57:37.121Z,15.63
2018-06-17T02:00:04.746Z,15.93
2018-06-17T02:02:31.893Z,14.10
2018-06-17T02:05:04.669Z,15.00
2018-06-17T02:07:37.601Z,15.60
2018-06-17T02:10:10.637Z,14.50
2018-06-17T02:12:37.772Z,16.20
2018-06-17T02:15:05.029Z,15.20
2018-06-17T02:17:32.256Z,15.83
2018-06-17T02:19:59.372Z,15.03
2018-06-17T02:22:26.521Z,16.50
2018-06-17T02:24:53.665Z,16.40
2018-06-17T02:27:20.800Z,15.17
2018-06-17T02:29:47.948Z,16.27
2018-06-17T02:32:15.116Z,16.33
2018-06-17T02:34:42.311Z,16.13
2018-06-17T02:37:09.675Z,15.13
2018-06-17T02:39:36.868Z,14.47
2018-06-17T02:42:04.173Z,16.37
2018-06-17T02:44:31.363Z,15.57
2018-06-17T02:47:04.180Z,14.87
2018-06-17T02:49:34.337Z,16.73
2018-06-17T02:52:07.093Z,16.20
2018-06-17T02:54:47.249Z,16.43
2018-06-17T02:57:15.680Z,15.90
2018-06-17T02:59:43.506Z,16.50
2018-06-17T03:02:11.209Z,16.60
2018-06-17T03:04:38.466Z,16.97
2018-06-17T03:07:05.672Z,15.27
2018-06-17T03:09:32.831Z,16.73
2018-06-17T03:12:00.030Z,16.97
2018-06-17T03:14:27.173Z,17.80
2018-06-17T03:16:54.506Z,18.60
2018-06-17T03:19:21.952Z,19.17
2018-06-17T03:21:49.292Z,19.77
2018-06-17T03:24:16.547Z,18.50
2018-06-17T03:26:49.458Z,17.40
2018-06-17T03:29:22.261Z,19.10
2018-06-17T03:31:55.270Z,17.17
2018-06-17T03:34:22.429Z,16.77
2018-06-17T03:36:49.580Z,18.57
2018-06-17T03:39:16.725Z,17.63
2018-06-17T03:41:43.878Z,17.30
2018-06-17T03:44:11.057Z,18.90
2018-06-17T03:46:38.248Z,17.07
2018-06-17T03:49:05.616Z,18.33
2018-06-17T03:51:32.782Z,16.30
2018-06-17T03:53:59.932Z,16.67
2018-06-17T03:56:27.225Z,16.03
2018-06-17T03:58:54.401Z,15.60
2018-06-17T04:01:21.622Z,16.27
2018-06-17T04:03:48.805Z,17.73
2018-06-17T04:06:16.003Z,16.17
2018-06-17T04:08:49.945Z,15.77
2018-06-17T04:11:17.116Z,16.37
2018-06-17T04:13:44.273Z,15.67
2018-06-17T04:16:11.428Z,15.90
2018-06-17T04:18:38.571Z,16.40
2018-06-17T04:21:06.074Z,16.67
2018-06-17T04:23:33.266Z,17.57
2018-06-17T04:26:00.443Z,16.67
2018-06-17T04:28:27.577Z,17.20
2018-06-17T04:30:54.716Z,16.33
2018-06-17T04:33:21.908Z,16.23
2018-06-17T04:35:49.090Z,17.00
2018-06-17T04:38:16.350Z,14.53
2018-06-17T04:40:43.513Z,17.20
2018-06-17T04:43:10.721Z,16.53
2018-06-17T04:45:37.882Z,16.53
2018-06-17T04:48:05.054Z,17.60
2018-06-17T04:50:32.245Z,17.83
2018-06-17T04:52:59.374Z,16.80
2018-06-17T04:55:26.513Z,17.10
2018-06-17T04:57:53.673Z,18.87
2018-06-17T05:00:20.836Z,18.43
2018-06-17T05:02:48.176Z,17.50
2018-06-17T05:05:15.452Z,19.70
2018-06-17T05:07:42.612Z,19.93
2018-06-17T05:10:09.772Z,19.83
2018-06-17T05:12:36.958Z,23.50
2018-06-17T05:15:04.938Z,21.70
2018-06-17T05:17:32.136Z,23.73
2018-06-17T05:19:59.282Z,22.30
2018-06-17T05:22:26.480Z,22.13
2018-06-17T05:24:53.653Z,21.80
2018-06-17T05:27:20.854Z,21.83
2018-06-17T05:29:48.062Z,23.33
2018-06-17T05:32:15.214Z,26.57
2018-06-17T05:34:42.369Z,24.30
2018-06-17T05:37:09.550Z,22.07
2018-06-17T05:39:36.713Z,20.77
2018-06-17T05:42:03.906Z,21.77
2018-06-17T05:44:31.104Z,21.80
2018-06-17T05:46:58.334Z,20.97
2018-06-17T05:49:25.520Z,21.87
2018-06-17T05:51:52.719Z,21.27
2018-06-17T05:54:19.886Z,18.10
2018-06-17T05:56:47.076Z,19.30
2018-06-17T05:59:14.280Z,20.27
2018-06-17T06:01:41.502Z,17.67
2018-06-17T06:04:08.812Z,17.93
2018-06-17T06:06:36.812Z,17.60
2018-06-17T06:09:06.792Z,17.90
2018-06-17T06:11:33.980Z,17.97
2018-06-17T06:14:01.190Z,16.47
2018-06-17T06:16:28.393Z,17.00
2018-06-17T06:18:55.605Z,16.30
2018-06-17T06:21:22.814Z,16.10
2018-06-17T06:23:50.035Z,16.00
2018-06-17T06:26:17.248Z,15.77
2018-06-17T06:28:44.462Z,15.43
2018-06-17T06:31:12.018Z,14.67
2018-06-17T06:33:39.229Z,16.60
2018-06-17T06:36:06.405Z,15.17
2018-06-17T06:38:33.626Z,14.50
2018-06-17T06:41:00.822Z,14.40
2018-06-17T06:43:28.056Z,14.47
2018-06-17T06:45:55.209Z,15.67
2018-06-17T06:48:22.371Z,15.20
2018-06-17T06:50:49.577Z,14.40
2018-06-17T06:53:16.765Z,12.97
2018-06-17T06:55:43.968Z,13.87
2018-06-17T06:58:11.193Z,13.37
2018-06-17T07:00:38.393Z,13.13
2018-06-17T07:03:16.981Z,14.47
2018-06-17T07:05:55.885Z,13.37
2018-06-17T07:08:34.460Z,13.80
2018-06-17T07:11:01.624Z,13.57
2018-06-17T07:13:28.814Z,13.57
2018-06-17T07:16:07.372Z,13.77
2018-06-17T07:18:38.749Z,12.80
2018-06-17T07:21:06.372Z,13.53
2018-06-17T07:23:33.553Z,12.90
2018-06-17T07:26:41.620Z,12.97
2018-06-17T07:29:21.189Z,11.90
2018-06-17T07:31:48.409Z,12.67
2018-06-17T07:34:16.030Z,12.30
2018-06-17T07:36:43.320Z,11.50
2018-06-17T07:41:20.930Z,11.60
2018-06-17T07:43:48.183Z,11.50
2018-06-17T07:46:15.404Z,11.27
2018-06-17T07:49:51.625Z,11.67
2018-06-17T07:52:31.602Z,10.20
2018-06-17T07:54:58.847Z,11.37
2018-06-17T07:57:27.254Z,10.73
2018-06-17T07:59:54.450Z,10.50
2018-06-17T08:02:21.632Z,10.60
2018-06-17T08:04:48.882Z,10.13
2018-06-17T08:07:16.063Z,10.73
2018-06-17T08:09:43.261Z,10.83
2018-06-17T08:12:11.085Z,11.00
2018-06-17T08:14:38.380Z,11.33
2018-06-17T08:17:05.602Z,10.60
2018-06-17T08:19:32.777Z,11.00
2018-06-17T08:22:00.614Z,9.67
2018-06-17T08:24:28.146Z,9.83
2018-06-17T08:26:55.379Z,9.43
2018-06-17T08:29:22.597Z,9.70
2018-06-17T08:31:49.760Z,8.93
2018-06-17T08:34:16.924Z,9.13
2018-06-17T08:36:44.151Z,6.57
2018-06-17T08:39:12.532Z,7.80
2018-06-17T08:41:39.753Z,7.03
2018-06-17T08:44:06.933Z,6.03
2018-06-17T08:46:34.386Z,6.10
2018-06-17T08:49:01.558Z,6.57
2018-06-17T08:51:28.760Z,7.23
2018-06-17T08:53:56.455Z,6.90
2018-06-17T08:56:23.881Z,6.17
2018-06-17T08:58:51.055Z,5.67
2018-06-17T09:01:18.269Z,6.10
2018-06-17T09:03:45.433Z,5.47
2018-06-17T09:06:12.792Z,6.03
2018-06-17T09:08:40.045Z,6.13
2018-06-17T09:11:07.241Z,6.67
2018-06-17T09:13:34.444Z,6.00
2018-06-17T09:16:01.645Z,6.77
2018-06-17T09:18:28.801Z,6.40
2018-06-17T09:20:55.990Z,7.03
2018-06-17T09:23:23.097Z,7.57
2018-06-17T09:25:50.257Z,8.10
2018-06-17T09:28:17.430Z,9.23
2018-06-17T09:30:44.593Z,8.73
2018-06-17T09:33:11.848Z,8.50
2018-06-17T09:35:39.056Z,8.47
2018-06-17T09:38:06.318Z,8.47
2018-06-17T09:40:33.520Z,8.67
2018-06-17T09:43:00.754Z,10.03
2018-06-17T09:45:28.301Z,9.30
2018-06-17T09:47:55.551Z,9.70
2018-06-17T09:50:22.785Z,9.43
2018-06-17T09:52:50.153Z,9.30
2018-06-17T09:55:17.293Z,9.67
2018-06-17T09:57:44.533Z,8.50
2018-06-17T10:00:16.633Z,8.30
2018-06-17T10:02:43.892Z,7.63
2018-06-17T10:05:11.084Z,9.23
2018-06-17T10:07:38.349Z,8.30
2018-06-17T10:11:11.941Z,8.13
2018-06-17T10:13:41.190Z,7.97
2018-06-17T10:16:08.767Z,7.37
2018-06-17T10:18:36.040Z,7.27
2018-06-17T10:21:03.350Z,7.60
2018-06-17T10:23:30.536Z,7.00
2018-06-17T10:25:57.749Z,6.70
2018-06-17T10:28:25.947Z,6.87
2018-06-17T10:30:53.790Z,7.23
2018-06-17T10:33:21.269Z,6.90
2018-06-17T10:35:48.510Z,7.37
2018-06-17T10:38:15.744Z,6.90
2018-06-17T10:40:42.988Z,6.40
2018-06-17T10:43:12.548Z,6.90
2018-06-17T10:45:40.204Z,6.87
2018-06-17T10:48:07.653Z,5.53
2018-06-17T10:50:34.858Z,6.10
2018-06-17T10:53:01.981Z,7.07
2018-06-17T10:55:29.141Z,7.50
2018-06-17T10:57:56.328Z,7.23
2018-06-17T11:00:23.528Z,6.40
2018-06-17T11:02:50.688Z,6.17
2018-06-17T11:05:17.904Z,5.73
2018-06-17T11:07:45.016Z,5.60
2018-06-17T11:10:12.141Z,5.87
2018-06-17T11:12:39.311Z,6.33
2018-06-17T11:15:06.444Z,6.53
2018-06-17T11:17:33.599Z,5.53
2018-06-17T11:20:00.759Z,6.30
2018-06-17T11:22:27.894Z,6.50
2018-06-17T11:24:55.075Z,5.97
2018-06-17T11:27:22.791Z,6.03
2018-06-17T11:29:50.772Z,5.87
2018-06-17T11:32:17.988Z,7.47
2018-06-17T11:34:45.146Z,6.37
2018-06-17T11:37:12.345Z,6.60
2018-06-17T11:39:39.513Z,6.13
2018-06-17T11:42:06.712Z,6.40
2018-06-17T11:44:33.989Z,6.03
2018-06-17T11:47:01.105Z,6.67
2018-06-17T11:49:28.276Z,6.57
2018-06-17T11:51:55.494Z,6.87
2018-06-17T11:54:22.632Z,6.70
2018-06-17T11:56:49.793Z,6.53
2018-06-17T11:59:17.210Z,6.17
2018-06-17T12:01:44.413Z,6.80
2018-06-17T12:04:11.582Z,6.60
2018-06-17T12:06:38.845Z,6.17
2018-06-17T12:09:07.521Z,6.67
2018-06-17T12:11:34.683Z,6.30
2018-06-17T12:14:01.829Z,6.27
2018-06-17T12:16:29.027Z,7.43
2018-06-17T12:18:56.241Z,6.60
2018-06-17T12:21:23.387Z,6.50
2018-06-17T12:23:50.553Z,6.50
2018-06-17T12:26:17.762Z,6.40
2018-06-17T12:28:44.987Z,5.77
2018-06-17T12:31:12.164Z,5.77
2018-06-17T12:33:39.343Z,5.00
2018-06-17T12:36:07.513Z,5.17
2018-06-17T12:38:34.672Z,5.17
2018-06-17T12:41:01.852Z,5.07
2018-06-17T12:43:29.044Z,5.30
2018-06-17T12:45:56.198Z,4.90
2018-06-17T12:48:23.375Z,4.40
2018-06-17T12:50:50.576Z,4.83
2018-06-17T12:53:17.766Z,4.10
2018-06-17T12:55:44.989Z,4.67
2018-06-17T12:58:12.145Z,4.60
2018-06-17T13:00:39.350Z,4.13
2018-06-17T13:03:06.554Z,3.70
2018-06-17T13:05:33.761Z,3.60
2018-06-17T13:08:01.037Z,4.50
2018-06-17T13:10:28.193Z,3.30
2018-06-17T13:12:55.403Z,3.00
2018-06-17T13:15:22.751Z,3.83
2018-06-17T13:17:50.019Z,2.90
2018-06-17T13:20:17.339Z,3.30
2018-06-17T13:22:44.514Z,3.63
2018-06-17T13:25:11.669Z,3.60
2018-06-17T13:27:38.877Z,3.27
2018-06-17T13:30:06.140Z,2.77
2018-06-17T13:32:33.474Z,3.20
2018-06-17T13:35:00.723Z,3.90
2018-06-17T13:37:27.905Z,3.43
2018-06-17T13:39:55.037Z,4.67
2018-06-17T13:42:22.271Z,3.57
2018-06-17T13:44:49.572Z,3.50
2018-06-17T13:47:16.806Z,4.03
2018-06-17T13:49:44.034Z,4.40
2018-06-17T13:52:11.398Z,3.90
2018-06-17T13:54:38.580Z,4.90
2018-06-17T13:57:05.752Z,4.17
2018-06-17T13:59:32.942Z,4.00
2018-06-17T14:02:00.222Z,3.90
2018-06-17T14:04:27.510Z,3.83
2018-06-17T14:06:54.855Z,3.70
2018-06-17T14:09:22.115Z,3.30
2018-06-17T14:11:49.428Z,3.97
2018-06-17T14:14:16.627Z,4.93
2018-06-17T14:16:43.837Z,3.47
2018-06-17T14:19:11.149Z,3.70
2018-06-17T14:21:38.464Z,4.20
2018-06-17T14:24:05.678Z,3.57
2018-06-17T14:26:32.823Z,4.50
2018-06-17T14:28:59.977Z,3.77
2018-06-17T14:31:27.206Z,4.03
2018-06-17T14:33:54.446Z,4.23
2018-06-17T14:36:21.640Z,3.80
2018-06-17T14:38:48.864Z,4.00
2018-06-17T14:41:16.920Z,3.93
2018-06-17T14:43:49.909Z,3.80
2018-06-17T14:47:23.536Z,4.33
2018-06-17T14:49:56.170Z,5.30
2018-06-17T14:52:25.699Z,3.40
2018-06-17T14:54:54.667Z,4.47
2018-06-17T14:57:21.914Z,4.00
2018-06-17T14:59:49.077Z,5.20
2018-06-17T15:02:16.297Z,4.77
2018-06-17T15:04:43.488Z,4.87
2018-06-17T15:07:10.712Z,5.10
2018-06-17T15:09:37.852Z,3.93
2018-06-17T15:12:05.088Z,4.70
2018-06-17T15:14:32.723Z,4.60
2018-06-17T15:16:59.990Z,4.67
2018-06-17T15:19:27.170Z,4.43
2018-06-17T15:21:54.403Z,4.80
2018-06-17T15:24:21.587Z,4.97
2018-06-17T15:26:48.785Z,4.43
2018-06-17T15:29:15.985Z,4.27
2018-06-17T15:31:48.889Z,5.03
2018-06-17T15:34:21.809Z,4.70
2018-06-17T15:36:54.653Z,4.73
2018-06-17T15:39:27.424Z,4.23
2018-06-17T15:41:54.613Z,4.80
2018-06-17T15:44:21.825Z,3.53
2018-06-17T15:46:48.997Z,3.90
2018-06-17T15:49:16.216Z,3.10
2018-06-17T15:51:43.417Z,3.63
2018-06-17T15:54:10.595Z,3.10
2018-06-17T15:56:37.752Z,3.57
2018-06-17T15:59:04.945Z,3.97
2018-06-17T16:01:32.172Z,2.90
2018-06-17T16:03:59.405Z,3.40
2018-06-17T16:06:26.639Z,3.70
2018-06-17T16:08:53.808Z,2.67
2018-06-17T16:11:20.972Z,3.00
2018-06-17T16:13:53.868Z,2.83
2018-06-17T16:16:26.840Z,2.77
2018-06-17T16:18:59.802Z,2.73
2018-06-17T16:21:27.061Z,2.80
2018-06-17T16:23:54.240Z,2.63
2018-06-17T16:26:21.419Z,2.77
2018-06-17T16:28:48.599Z,3.30
2018-06-17T16:31:15.798Z,3.00
2018-06-17T16:33:43.053Z,2.60
2018-06-17T16:36:10.208Z,3.10
2018-06-17T16:38:37.317Z,2.97
2018-06-17T16:41:04.537Z,3.00
2018-06-17T16:43:31.714Z,3.73
2018-06-17T16:45:58.952Z,2.13
2018-06-17T16:48:26.145Z,3.07
2018-06-17T16:50:58.949Z,3.00
2018-06-17T16:53:31.723Z,2.67
2018-06-17T16:56:04.710Z,3.20
2018-06-17T16:58:37.759Z,3.00
2018-06-17T17:01:05.013Z,3.03
2018-06-17T17:03:32.233Z,2.70
2018-06-17T17:05:59.452Z,2.60
2018-06-17T17:08:26.609Z,3.07
2018-06-17T17:10:53.837Z,2.70
2018-06-17T17:13:21.039Z,2.67
2018-06-17T17:15:48.273Z,2.90
2018-06-17T17:18:15.455Z,3.23
2018-06-17T17:20:42.667Z,3.00
2018-06-17T17:23:09.873Z,3.00
2018-06-17T17:25:37.009Z,2.60
2018-06-17T17:28:04.236Z,2.30
2018-06-17T17:30:31.381Z,2.60
2018-06-17T17:33:04.381Z,2.40
2018-06-17T17:36:41.192Z,3.10
2018-06-17T17:39:14.092Z,3.10
2018-06-17T17:41:41.366Z,2.60
2018-06-17T17:44:08.622Z,2.30
2018-06-17T17:46:41.572Z,2.00
2018-06-17T17:49:11.994Z,2.63
2018-06-17T17:51:39.259Z,2.30
2018-06-17T17:54:06.931Z,2.17
2018-06-17T17:56:34.108Z,2.60
2018-06-17T17:59:01.276Z,2.23
2018-06-17T18:01:28.504Z,2.23
2018-06-17T18:03:55.684Z,2.47
2018-06-17T18:06:22.866Z,2.73
2018-06-17T18:08:50.073Z,2.90
2018-06-17T18:11:17.382Z,2.50
2018-06-17T18:13:44.556Z,2.20
2018-06-17T18:16:11.750Z,2.40
2018-06-17T18:18:38.954Z,2.10
2018-06-17T18:21:06.885Z,2.00
2018-06-17T18:23:34.144Z,2.63
2018-06-17T18:26:07.144Z,2.70
2018-06-17T18:28:40.030Z,2.60
2018-06-17T18:31:07.228Z,2.60
2018-06-17T18:33:40.145Z,2.53
2018-06-17T18:36:13.042Z,2.30
2018-06-17T18:38:41.512Z,2.00
2018-06-17T18:41:09.505Z,2.43
2018-06-17T18:43:36.668Z,2.77
2018-06-17T18:46:03.985Z,2.17
2018-06-17T18:48:31.133Z,2.70
2018-06-17T18:50:58.841Z,2.30
2018-06-17T18:53:26.047Z,2.30
2018-06-17T18:55:53.624Z,2.70
2018-06-17T18:58:20.933Z,3.43
2018-06-17T19:00:48.855Z,3.20
2018-06-17T19:03:16.122Z,2.70
2018-06-17T19:05:43.391Z,3.10
2018-06-17T19:08:16.412Z,2.73
2018-06-17T19:10:49.130Z,3.47
2018-06-17T19:13:22.092Z,3.10
2018-06-17T19:15:54.984Z,2.70
2018-06-17T19:18:22.229Z,2.97
2018-06-17T19:20:49.624Z,2.93
2018-06-17T19:23:16.975Z,2.50
2018-06-17T19:25:44.153Z,3.40
2018-06-17T19:28:11.391Z,3.40
2018-06-17T19:30:38.539Z,3.00
2018-06-17T19:33:05.958Z,2.93
2018-06-17T19:35:33.197Z,3.10
2018-06-17T19:38:00.396Z,3.83
2018-06-17T19:40:27.819Z,3.30
2018-06-17T19:42:55.314Z,2.90
2018-06-17T19:45:22.484Z,3.60
2018-06-17T19:47:49.699Z,3.27
2018-06-17T19:50:22.643Z,2.53
2018-06-17T19:52:55.633Z,3.53
2018-06-17T19:55:28.525Z,3.30
2018-06-17T19:58:01.594Z,3.40
2018-06-17T20:00:31.281Z,3.30
2018-06-17T20:02:58.465Z,3.00
2018-06-17T20:05:25.605Z,4.17
2018-06-17T20:07:52.817Z,3.30
2018-06-17T20:10:20.024Z,3.53
2018-06-17T20:12:47.222Z,2.50
2018-06-17T20:15:14.417Z,3.33
2018-06-17T20:17:41.581Z,3.10
2018-06-17T20:20:08.724Z,3.27
2018-06-17T20:22:35.915Z,2.73
2018-06-17T20:25:03.350Z,3.30
2018-06-17T20:27:30.537Z,4.00
2018-06-17T20:29:57.739Z,3.63
2018-06-17T20:32:30.573Z,3.43
2018-06-17T20:35:03.363Z,3.60
2018-06-17T20:37:36.342Z,3.13
2018-06-17T20:40:09.448Z,3.77
2018-06-17T20:42:42.164Z,3.30
2018-06-17T20:45:09.303Z,3.50
2018-06-17T20:47:36.516Z,3.30
2018-06-17T20:50:03.987Z,3.53
2018-06-17T20:52:31.258Z,4.50
2018-06-17T20:54:58.494Z,4.57
2018-06-17T20:57:25.712Z,3.20
2018-06-17T20:59:52.880Z,3.27
2018-06-17T21:02:20.042Z,2.93
2018-06-17T21:04:47.233Z,3.70
2018-06-17T21:07:14.430Z,3.73
2018-06-17T21:09:41.560Z,3.00
2018-06-17T21:12:08.726Z,3.20
2018-06-17T21:14:35.888Z,9.27
2018-06-17T21:17:03.050Z,16.40
2018-06-17T21:19:35.859Z,15.50
2018-06-17T21:22:08.724Z,9.73
2018-06-17T21:24:41.600Z,7.47
2018-06-17T21:27:14.266Z,4.80
2018-06-17T21:29:41.499Z,3.27
2018-06-17T21:32:08.639Z,3.30
2018-06-17T21:34:35.825Z,3.97
2018-06-17T21:37:02.988Z,3.57
2018-06-17T21:39:30.176Z,3.00
2018-06-17T21:41:57.320Z,3.83
2018-06-17T21:44:24.452Z,3.40
2018-06-17T21:46:51.615Z,3.30
2018-06-17T21:49:18.861Z,3.03
2018-06-17T21:51:46.002Z,3.10
2018-06-17T21:54:13.173Z,3.60
2018-06-17T21:56:40.454Z,3.83
2018-06-17T21:59:07.592Z,3.63
2018-06-17T22:01:34.751Z,4.53
2018-06-17T22:04:07.681Z,4.17
2018-06-17T22:06:34.881Z,4.17
2018-06-17T22:09:07.615Z,3.87
2018-06-17T22:11:40.572Z,5.30
2018-06-17T22:14:13.309Z,5.00
2018-06-17T22:16:46.156Z,4.50
2018-06-17T22:19:13.291Z,4.47
2018-06-17T22:21:40.440Z,4.60
2018-06-17T22:24:07.642Z,4.10
2018-06-17T22:26:34.842Z,4.53
2018-06-17T22:29:02.086Z,3.50
2018-06-17T22:31:29.316Z,3.70
2018-06-17T22:33:56.457Z,3.73
2018-06-17T22:36:23.594Z,3.67
2018-06-17T22:38:50.734Z,3.40
2018-06-17T22:41:17.857Z,4.00
2018-06-17T22:43:44.956Z,4.77
2018-06-17T22:46:12.131Z,3.90
2018-06-17T22:48:39.257Z,3.43
2018-06-17T22:51:06.468Z,4.57
2018-06-17T22:53:45.055Z,4.33
2018-06-17T22:56:18.185Z,3.77
2018-06-17T22:58:51.001Z,3.67
2018-06-17T23:02:24.608Z,3.33
2018-06-17T23:04:57.305Z,4.10
2018-06-17T23:07:30.089Z,4.50
2018-06-17T23:09:57.269Z,3.80
2018-06-17T23:12:24.425Z,4.17
2018-06-17T23:14:51.569Z,3.80
2018-06-17T23:17:18.733Z,4.30
2018-06-17T23:19:45.874Z,3.67
2018-06-17T23:22:13.076Z,3.47
2018-06-17T23:24:40.204Z,4.33
2018-06-17T23:27:07.350Z,4.40
2018-06-17T23:29:34.484Z,4.17
2018-06-17T23:32:01.643Z,3.87
2018-06-17T23:34:28.757Z,4.30
2018-06-17T23:36:55.908Z,4.43
2018-06-17T23:39:23.046Z,4.50
2018-06-17T23:41:50.220Z,3.23
2018-06-17T23:44:17.393Z,4.70
2018-06-17T23:46:50.321Z,4.20
2018-06-17T23:49:23.024Z,3.73
2018-06-17T23:51:55.997Z,3.90
2018-06-17T23:54:28.968Z,4.17
2018-06-17T23:56:56.177Z,3.40
2018-06-17T23:59:23.280Z,3.87
